createdAt,value
2022-08-17T00:01:51.281Z,12.88
2022-08-17T00:04:20.254Z,12.35
2022-08-17T00:06:49.209Z,12.55
2022-08-17T00:09:18.948Z,12.40
2022-08-17T00:12:41.280Z,11.75
2022-08-17T00:14:36.227Z,13.65
2022-08-17T00:17:06.357Z,12.68
2022-08-17T00:19:34.004Z,13.27
2022-08-17T00:22:33.121Z,12.60
2022-08-17T00:24:50.577Z,13.10
2022-08-17T00:27:18.165Z,13.95
2022-08-17T00:29:46.770Z,13.30
2022-08-17T00:33:14.905Z,13.07
2022-08-17T00:35:05.359Z,13.00
2022-08-17T00:37:32.749Z,13.38
2022-08-17T00:40:00.239Z,13.43
2022-08-17T00:42:31.094Z,13.50
2022-08-17T00:44:58.875Z,13.50
2022-08-17T00:47:27.677Z,13.23
2022-08-17T00:49:55.072Z,13.30
2022-08-17T00:52:26.041Z,14.30
2022-08-17T00:54:55.027Z,12.93
2022-08-17T00:57:25.089Z,14.07
2022-08-17T01:00:02.123Z,13.15
2022-08-17T01:02:52.100Z,13.48
2022-08-17T01:05:22.289Z,13.93
2022-08-17T01:07:51.104Z,13.60
2022-08-17T01:10:57.438Z,12.82
2022-08-17T01:13:11.179Z,13.65
2022-08-17T01:15:41.315Z,13.15
2022-08-17T01:18:15.877Z,13.10
2022-08-17T01:20:48.042Z,12.90
2022-08-17T01:23:20.499Z,13.48
2022-08-17T01:25:50.125Z,14.50
2022-08-17T01:28:52.785Z,14.40
2022-08-17T01:31:07.280Z,15.45
2022-08-17T01:33:34.995Z,15.10
2022-08-17T01:36:02.617Z,14.80
2022-08-17T01:38:31.892Z,14.63
2022-08-17T01:41:01.762Z,14.57
2022-08-17T01:43:32.212Z,14.70
2022-08-17T01:46:04.004Z,14.88
2022-08-17T01:48:32.640Z,14.95
2022-08-17T01:51:00.850Z,14.30
2022-08-17T01:53:32.978Z,14.00
2022-08-17T01:56:02.449Z,14.57
2022-08-17T01:58:30.613Z,13.75
2022-08-17T02:01:00.790Z,13.30
2022-08-17T02:03:29.687Z,12.90
2022-08-17T02:05:57.510Z,13.85
2022-08-17T02:08:37.181Z,12.98
2022-08-17T02:11:14.496Z,13.07
2022-08-17T02:13:41.984Z,12.60
2022-08-17T02:16:09.408Z,13.63
2022-08-17T02:18:36.837Z,13.82
2022-08-17T02:21:05.096Z,13.88
2022-08-17T02:23:34.682Z,14.05
2022-08-17T02:26:02.553Z,13.25
2022-08-17T02:28:31.395Z,13.90
2022-08-17T02:31:04.930Z,13.07
2022-08-17T02:33:42.706Z,13.00
2022-08-17T02:36:12.001Z,13.00
2022-08-17T02:38:39.918Z,13.35
2022-08-17T02:41:07.631Z,13.02
2022-08-17T02:43:36.665Z,13.48
2022-08-17T02:46:04.291Z,13.75
2022-08-17T02:48:32.145Z,13.57
2022-08-17T02:50:59.902Z,13.02
2022-08-17T02:53:35.548Z,13.90
2022-08-17T02:56:04.246Z,13.55
2022-08-17T02:58:35.075Z,14.07
2022-08-17T03:01:05.693Z,13.95
2022-08-17T03:03:33.352Z,14.32
2022-08-17T03:06:01.184Z,14.23
2022-08-17T03:08:28.670Z,13.75
2022-08-17T03:10:56.424Z,15.63
2022-08-17T03:13:24.107Z,15.13
2022-08-17T03:15:51.714Z,14.23
2022-08-17T03:18:24.473Z,15.35
2022-08-17T03:20:53.074Z,15.18
2022-08-17T03:23:24.258Z,14.50
2022-08-17T03:25:53.880Z,14.73
2022-08-17T03:28:22.027Z,15.35
2022-08-17T03:30:50.912Z,13.73
2022-08-17T03:33:20.610Z,14.85
2022-08-17T03:35:48.016Z,14.38
2022-08-17T03:38:17.105Z,15.50
2022-08-17T03:40:58.745Z,14.80
2022-08-17T03:43:28.979Z,15.38
2022-08-17T03:46:34.759Z,14.77
2022-08-17T03:49:20.303Z,15.57
2022-08-17T03:52:05.027Z,15.40
2022-08-17T03:54:50.037Z,15.30
2022-08-17T03:57:19.032Z,15.95
2022-08-17T03:59:46.445Z,16.05
2022-08-17T04:02:19.253Z,16.58
2022-08-17T04:04:50.752Z,16.40
2022-08-17T04:07:18.599Z,15.88
2022-08-17T04:09:46.071Z,15.60
2022-08-17T04:12:15.580Z,16.00
2022-08-17T04:14:53.426Z,16.00
2022-08-17T04:17:23.281Z,15.77
2022-08-17T04:19:52.001Z,17.50
2022-08-17T04:22:32.233Z,17.17
2022-08-17T04:25:03.277Z,18.20
2022-08-17T04:27:30.727Z,16.83
2022-08-17T04:29:58.454Z,16.50
2022-08-17T04:32:59.279Z,16.88
2022-08-17T04:35:18.950Z,15.73
2022-08-17T04:37:47.311Z,16.85
2022-08-17T04:40:32.441Z,17.38
2022-08-17T04:43:04.363Z,16.90
2022-08-17T04:45:32.251Z,18.27
2022-08-17T04:48:00.114Z,18.65
2022-08-17T04:50:28.935Z,17.50
2022-08-17T04:52:57.169Z,17.42
2022-08-17T04:55:24.794Z,17.80
2022-08-17T04:57:52.209Z,17.00
2022-08-17T05:00:19.709Z,16.80
2022-08-17T05:02:49.745Z,16.88
2022-08-17T05:05:19.212Z,16.30
2022-08-17T05:07:51.920Z,16.65
2022-08-17T05:10:20.075Z,16.48
2022-08-17T05:12:48.856Z,16.90
2022-08-17T05:15:16.622Z,18.13
2022-08-17T05:17:44.045Z,18.63
2022-08-17T05:20:12.269Z,19.23
2022-08-17T05:22:51.108Z,19.52
2022-08-17T05:25:25.633Z,19.25
2022-08-17T05:27:53.387Z,18.45
2022-08-17T05:30:21.367Z,19.05
2022-08-17T05:32:54.052Z,18.50
2022-08-17T05:35:22.146Z,18.40
2022-08-17T05:37:51.117Z,18.42
2022-08-17T05:40:19.862Z,17.30
2022-08-17T05:42:47.267Z,15.48
2022-08-17T05:45:15.703Z,16.70
2022-08-17T05:47:44.385Z,14.13
2022-08-17T05:50:29.877Z,15.60
2022-08-17T05:53:05.200Z,14.73
2022-08-17T05:55:37.467Z,12.95
2022-08-17T05:58:11.068Z,11.93
2022-08-17T06:03:20.329Z,11.90
2022-08-17T06:05:55.762Z,11.57
2022-08-17T06:08:32.919Z,10.63
2022-08-17T06:11:06.663Z,10.73
2022-08-17T06:13:46.979Z,10.30
2022-08-17T06:16:33.019Z,10.10
2022-08-17T06:19:04.548Z,9.85
2022-08-17T06:21:35.196Z,9.85
2022-08-17T06:24:07.629Z,9.52
2022-08-17T06:26:43.021Z,9.27
2022-08-17T06:29:18.726Z,9.63
2022-08-17T06:31:46.561Z,9.10
2022-08-17T06:34:14.101Z,10.68
2022-08-17T06:36:49.732Z,8.98
2022-08-17T06:39:29.253Z,9.15
2022-08-17T06:42:01.656Z,9.98
2022-08-17T06:44:43.508Z,9.50
2022-08-17T06:47:28.305Z,8.70
2022-08-17T06:50:02.360Z,10.05
2022-08-17T06:52:37.606Z,8.63
2022-08-17T06:55:21.207Z,8.52
2022-08-17T06:57:51.222Z,7.38
2022-08-17T07:00:20.660Z,7.88
2022-08-17T07:02:53.202Z,6.95
2022-08-17T07:05:23.055Z,7.20
2022-08-17T07:08:04.753Z,5.97
2022-08-17T07:10:38.148Z,6.65
2022-08-17T07:15:57.649Z,5.85
2022-08-17T07:18:27.462Z,6.05
2022-08-17T07:20:59.004Z,5.88
2022-08-17T07:23:39.452Z,5.95
2022-08-17T07:26:09.189Z,5.57
2022-08-17T07:28:37.035Z,5.70
2022-08-17T07:31:05.101Z,5.80
2022-08-17T07:33:34.896Z,5.70
2022-08-17T07:36:02.348Z,5.47
2022-08-17T07:38:31.404Z,5.05
2022-08-17T07:41:05.348Z,5.13
2022-08-17T07:43:36.622Z,5.43
2022-08-17T07:46:34.046Z,5.38
2022-08-17T07:49:23.635Z,5.57
2022-08-17T07:51:58.154Z,4.80
2022-08-17T07:54:42.699Z,5.53
2022-08-17T07:57:33.834Z,5.25
2022-08-17T08:00:16.867Z,5.28
2022-08-17T08:02:48.043Z,5.15
2022-08-17T08:05:29.876Z,4.82
2022-08-17T08:08:22.280Z,4.03
2022-08-17T08:10:59.191Z,3.80
2022-08-17T08:13:29.545Z,3.42
2022-08-17T08:16:25.808Z,3.40
2022-08-17T08:18:57.138Z,3.50
2022-08-17T08:21:31.675Z,4.22
2022-08-17T08:24:02.549Z,4.25
2022-08-17T08:26:35.133Z,4.32
2022-08-17T08:31:45.294Z,3.95
2022-08-17T08:34:47.414Z,3.78
2022-08-17T08:37:16.418Z,3.90
2022-08-17T08:39:55.407Z,3.92
2022-08-17T08:42:27.300Z,3.80
2022-08-17T08:45:04.443Z,3.88
2022-08-17T08:47:49.697Z,4.00
2022-08-17T08:50:37.167Z,4.35
2022-08-17T08:53:13.201Z,3.60
2022-08-17T08:55:50.506Z,3.72
2022-08-17T08:58:30.712Z,3.83
2022-08-17T09:01:08.700Z,4.00
2022-08-17T09:04:16.973Z,3.70
2022-08-17T09:06:49.281Z,3.83
2022-08-17T09:09:25.104Z,3.90
2022-08-17T09:12:03.903Z,3.25
2022-08-17T09:14:46.715Z,3.28
2022-08-17T09:17:17.067Z,2.90
2022-08-17T09:19:49.910Z,3.72
2022-08-17T09:22:26.354Z,3.30
2022-08-17T09:24:58.324Z,3.40
2022-08-17T09:27:30.118Z,3.00
2022-08-17T09:30:00.270Z,2.90
2022-08-17T09:32:32.709Z,3.28
2022-08-17T09:35:05.039Z,3.30
2022-08-17T09:37:38.412Z,3.53
2022-08-17T09:40:12.312Z,3.80
2022-08-17T09:42:45.400Z,3.92
2022-08-17T09:45:23.638Z,3.30
2022-08-17T09:47:54.300Z,3.30
2022-08-17T09:50:55.557Z,3.15
2022-08-17T09:53:15.141Z,3.40
2022-08-17T09:56:07.326Z,3.85
2022-08-17T09:58:45.210Z,3.00
2022-08-17T10:01:22.088Z,3.47
2022-08-17T10:04:20.354Z,2.88
2022-08-17T10:06:54.239Z,2.90
2022-08-17T10:09:36.505Z,2.63
2022-08-17T10:14:56.546Z,2.70
2022-08-17T10:17:29.204Z,2.92
2022-08-17T10:20:02.629Z,3.33
2022-08-17T10:23:03.637Z,3.60
2022-08-17T10:25:55.043Z,2.92
2022-08-17T10:28:29.383Z,2.97
2022-08-17T10:31:23.412Z,2.95
2022-08-17T10:34:00.378Z,3.17
2022-08-17T10:36:34.649Z,3.33
2022-08-17T10:39:08.740Z,3.47
2022-08-17T10:41:40.857Z,3.90
2022-08-17T10:44:38.902Z,3.40
2022-08-17T10:47:08.048Z,3.30
2022-08-17T10:49:36.242Z,3.75
2022-08-17T10:52:09.519Z,3.50
2022-08-17T10:54:47.304Z,3.78
2022-08-17T10:57:40.769Z,3.60
2022-08-17T11:00:14.659Z,3.78
2022-08-17T11:02:47.852Z,3.60
2022-08-17T11:05:54.040Z,3.35
2022-08-17T11:08:35.598Z,3.63
2022-08-17T11:11:17.301Z,3.95
2022-08-17T11:13:49.657Z,3.88
2022-08-17T11:16:32.694Z,3.55
2022-08-17T11:19:39.823Z,3.70
2022-08-17T11:22:34.891Z,3.92
2022-08-17T11:25:14.182Z,3.47
2022-08-17T11:27:43.916Z,3.28
2022-08-17T11:30:14.185Z,3.25
2022-08-17T11:32:47.985Z,3.40
2022-08-17T11:35:35.681Z,3.08
2022-08-17T11:38:16.210Z,2.80
2022-08-17T11:41:04.113Z,3.35
2022-08-17T11:43:57.259Z,3.67
2022-08-17T11:49:41.509Z,3.60
2022-08-17T11:52:15.976Z,3.58
2022-08-17T11:54:46.091Z,3.10
2022-08-17T11:57:45.922Z,3.40
2022-08-17T12:00:46.751Z,3.33
2022-08-17T12:03:42.404Z,4.00
2022-08-17T12:06:30.986Z,3.30
2022-08-17T12:09:02.974Z,3.30
2022-08-17T12:12:10.976Z,3.20
2022-08-17T12:14:44.971Z,3.25
2022-08-17T12:17:20.851Z,3.00
2022-08-17T12:20:14.656Z,3.17
2022-08-17T12:22:49.448Z,3.33
2022-08-17T12:25:21.042Z,3.53
2022-08-17T12:28:05.980Z,3.30
2022-08-17T12:30:35.550Z,3.05
2022-08-17T12:33:02.997Z,2.97
2022-08-17T12:35:35.116Z,3.65
2022-08-17T12:38:32.806Z,3.78
2022-08-17T12:40:58.086Z,3.50
2022-08-17T12:43:29.276Z,3.60
2022-08-17T12:45:59.466Z,3.10
2022-08-17T12:48:28.290Z,4.05
2022-08-17T12:51:01.826Z,4.00
2022-08-17T12:53:31.285Z,4.05
2022-08-17T12:56:00.233Z,3.78
2022-08-17T12:58:31.552Z,3.30
2022-08-17T13:01:04.197Z,3.75
2022-08-17T13:03:41.918Z,3.50
2022-08-17T13:06:14.222Z,3.30
2022-08-17T13:08:45.263Z,3.30
2022-08-17T13:11:20.244Z,3.60
2022-08-17T13:13:50.781Z,3.33
2022-08-17T13:16:21.235Z,3.53
2022-08-17T13:18:51.003Z,3.85
2022-08-17T13:21:27.132Z,3.63
2022-08-17T13:23:57.007Z,3.50
2022-08-17T13:26:29.353Z,3.67
2022-08-17T13:28:56.811Z,3.80
2022-08-17T13:31:47.450Z,3.85
2022-08-17T13:34:33.471Z,4.18
2022-08-17T13:37:26.308Z,3.50
2022-08-17T13:39:56.129Z,3.72
2022-08-17T13:42:31.142Z,3.70
2022-08-17T13:44:58.772Z,4.15
2022-08-17T13:47:26.540Z,3.63
2022-08-17T13:49:55.200Z,3.95
2022-08-17T13:52:38.001Z,3.90
2022-08-17T13:55:08.857Z,4.10
2022-08-17T13:57:36.736Z,4.03
2022-08-17T14:00:12.156Z,3.78
2022-08-17T14:02:39.562Z,3.88
2022-08-17T14:05:07.245Z,3.90
2022-08-17T14:07:37.460Z,4.07
2022-08-17T14:10:08.938Z,4.13
2022-08-17T14:12:38.783Z,3.83
2022-08-17T14:15:07.199Z,3.90
2022-08-17T14:17:38.695Z,4.10
2022-08-17T14:20:09.341Z,3.83
2022-08-17T14:22:39.670Z,3.90
2022-08-17T14:25:10.372Z,3.80
2022-08-17T14:27:41.615Z,4.30
2022-08-17T14:30:20.076Z,4.30
2022-08-17T14:32:49.003Z,4.07
2022-08-17T14:35:17.584Z,3.80
2022-08-17T14:37:47.617Z,3.72
2022-08-17T14:40:16.833Z,3.83
2022-08-17T14:42:46.035Z,4.07
2022-08-17T14:45:29.957Z,3.85
2022-08-17T14:48:01.186Z,3.78
2022-08-17T14:50:28.566Z,3.97
2022-08-17T14:52:57.966Z,3.58
2022-08-17T14:55:25.737Z,4.10
2022-08-17T14:57:53.302Z,4.35
2022-08-17T15:00:20.853Z,4.10
2022-08-17T15:02:50.866Z,4.10
2022-08-17T15:05:18.465Z,4.10
2022-08-17T15:07:45.890Z,3.55
2022-08-17T15:10:15.701Z,4.15
2022-08-17T15:12:43.290Z,4.00
2022-08-17T15:15:13.129Z,4.03
2022-08-17T15:17:44.929Z,4.00
2022-08-17T15:20:15.346Z,3.97
2022-08-17T15:22:44.541Z,4.40
2022-08-17T15:25:13.015Z,4.55
2022-08-17T15:27:42.329Z,4.38
2022-08-17T15:30:11.678Z,4.53
2022-08-17T15:32:41.028Z,4.25
2022-08-17T15:35:19.007Z,3.92
2022-08-17T15:37:52.695Z,4.22
2022-08-17T15:40:20.238Z,4.05
2022-08-17T15:42:48.954Z,4.15
2022-08-17T15:45:17.369Z,4.47
2022-08-17T15:47:44.788Z,4.35
2022-08-17T15:50:12.299Z,4.05
2022-08-17T15:52:42.091Z,3.75
2022-08-17T15:55:13.005Z,4.00
2022-08-17T15:57:40.442Z,3.90
2022-08-17T16:00:11.004Z,4.22
2022-08-17T16:05:31.080Z,4.38
2022-08-17T16:07:59.493Z,4.20
2022-08-17T16:10:35.227Z,4.00
2022-08-17T16:13:04.009Z,4.43
2022-08-17T16:15:33.009Z,4.40
2022-08-17T16:18:00.645Z,3.90
2022-08-17T16:20:30.532Z,4.53
2022-08-17T16:22:58.478Z,4.65
2022-08-17T16:25:50.296Z,4.80
2022-08-17T16:28:17.886Z,4.97
2022-08-17T16:30:46.597Z,4.90
2022-08-17T16:33:15.027Z,4.35
2022-08-17T16:35:42.859Z,4.63
2022-08-17T16:38:10.869Z,4.53
2022-08-17T16:40:38.376Z,4.60
2022-08-17T16:43:07.001Z,4.50
2022-08-17T16:45:36.489Z,4.80
2022-08-17T16:48:05.950Z,4.60
2022-08-17T16:50:33.769Z,4.63
2022-08-17T16:53:06.427Z,4.60
2022-08-17T16:55:35.801Z,4.72
2022-08-17T16:58:03.543Z,4.30
2022-08-17T17:00:33.089Z,3.97
2022-08-17T17:03:19.490Z,4.47
2022-08-17T17:06:03.659Z,4.50
2022-08-17T17:08:40.708Z,4.60
2022-08-17T17:11:13.731Z,4.55
2022-08-17T17:13:46.793Z,4.97
2022-08-17T17:16:20.679Z,4.78
2022-08-17T17:18:58.975Z,5.22
2022-08-17T17:21:33.601Z,4.80
2022-08-17T17:24:05.424Z,4.50
2022-08-17T17:26:59.789Z,4.43
2022-08-17T17:29:47.725Z,5.20
2022-08-17T17:32:20.878Z,6.82
2022-08-17T17:35:02.881Z,8.45
2022-08-17T17:37:33.482Z,7.22
2022-08-17T17:40:04.981Z,5.30
2022-08-17T17:42:33.020Z,9.73
2022-08-17T17:45:06.786Z,5.85
2022-08-17T17:47:34.841Z,4.90
2022-08-17T17:50:06.923Z,5.22
2022-08-17T17:52:40.899Z,5.50
2022-08-17T17:55:18.249Z,5.43
2022-08-17T17:57:58.964Z,5.80
2022-08-17T18:00:31.199Z,5.72
2022-08-17T18:03:15.086Z,5.47
2022-08-17T18:05:49.798Z,5.78
2022-08-17T18:08:35.109Z,5.88
2022-08-17T18:11:12.357Z,5.93
2022-08-17T18:13:53.302Z,5.25
2022-08-17T18:16:21.119Z,5.20
2022-08-17T18:18:50.041Z,5.32
2022-08-17T18:21:21.297Z,9.48
2022-08-17T18:23:52.848Z,16.10
2022-08-17T18:26:36.846Z,5.60
2022-08-17T18:29:16.975Z,5.40
2022-08-17T18:31:44.390Z,5.07
2022-08-17T18:34:45.838Z,5.60
2022-08-17T18:37:11.698Z,5.78
2022-08-17T18:39:44.251Z,5.78
2022-08-17T18:42:28.965Z,5.65
2022-08-17T18:44:56.990Z,5.20
2022-08-17T18:47:26.260Z,5.45
2022-08-17T18:49:57.742Z,19.55
2022-08-17T18:52:28.651Z,8.60
2022-08-17T18:55:08.464Z,6.25
2022-08-17T18:57:38.059Z,5.18
2022-08-17T19:00:12.648Z,5.40
2022-08-17T19:02:51.923Z,5.10
2022-08-17T19:05:35.619Z,5.45
2022-08-17T19:08:21.294Z,5.72
2022-08-17T19:10:50.341Z,5.30
2022-08-17T19:13:24.467Z,5.75
2022-08-17T19:16:07.786Z,5.75
2022-08-17T19:18:45.043Z,5.82
2022-08-17T19:21:16.702Z,5.90
2022-08-17T19:23:54.080Z,5.78
2022-08-17T19:26:54.573Z,8.90
2022-08-17T19:29:16.162Z,22.52
2022-08-17T19:31:47.372Z,17.52
2022-08-17T19:34:16.481Z,8.82
2022-08-17T19:37:01.099Z,7.87
2022-08-17T19:39:38.623Z,6.90
2022-08-17T19:42:24.353Z,6.47
2022-08-17T19:44:56.213Z,6.28
2022-08-17T19:47:51.552Z,6.45
2022-08-17T19:50:22.311Z,6.55
2022-08-17T19:52:55.222Z,6.50
2022-08-17T19:55:31.550Z,6.78
2022-08-17T19:58:04.803Z,26.85
2022-08-17T20:00:34.628Z,21.08
2022-08-17T20:03:06.380Z,9.00
2022-08-17T20:06:00.876Z,7.28
2022-08-17T20:08:27.838Z,6.72
2022-08-17T20:10:58.928Z,7.50
2022-08-17T20:13:33.152Z,7.20
2022-08-17T20:16:01.922Z,7.13
2022-08-17T20:18:32.881Z,6.70
2022-08-17T20:21:02.965Z,6.90
2022-08-17T20:23:38.205Z,7.15
2022-08-17T20:26:17.171Z,6.90
2022-08-17T20:29:09.482Z,6.82
2022-08-17T20:31:45.931Z,7.82
2022-08-17T20:34:31.047Z,7.47
2022-08-17T20:37:08.798Z,8.00
2022-08-17T20:39:39.842Z,7.00
2022-08-17T20:42:29.472Z,7.63
2022-08-17T20:44:58.735Z,7.60
2022-08-17T20:47:28.192Z,7.30
2022-08-17T20:49:58.258Z,7.47
2022-08-17T20:52:45.565Z,7.25
2022-08-17T20:55:52.387Z,7.63
2022-08-17T20:58:46.535Z,7.28
2022-08-17T21:01:20.083Z,7.80
2022-08-17T21:03:51.849Z,7.57
2022-08-17T21:06:22.799Z,7.82
2022-08-17T21:08:54.166Z,7.82
2022-08-17T21:12:02.735Z,7.60
2022-08-17T21:14:57.989Z,7.68
2022-08-17T21:17:40.234Z,7.90
2022-08-17T21:20:32.501Z,8.00
2022-08-17T21:23:18.185Z,7.70
2022-08-17T21:25:58.106Z,8.70
2022-08-17T21:28:34.588Z,8.23
2022-08-17T21:31:09.147Z,8.55
2022-08-17T21:33:38.208Z,8.35
2022-08-17T21:36:26.156Z,7.70
2022-08-17T21:39:00.826Z,8.32
2022-08-17T21:41:31.051Z,8.27
2022-08-17T21:44:05.238Z,30.80
2022-08-17T21:46:39.251Z,34.97
2022-08-17T21:49:13.416Z,8.95
2022-08-17T21:51:45.633Z,8.55
2022-08-17T21:54:31.299Z,8.05
2022-08-17T21:57:00.424Z,8.52
2022-08-17T21:59:31.793Z,8.32
2022-08-17T22:02:02.218Z,7.95
2022-08-17T22:04:32.362Z,8.80
2022-08-17T22:07:01.543Z,8.35
2022-08-17T22:09:31.607Z,7.97
2022-08-17T22:12:03.798Z,8.23
2022-08-17T22:14:51.628Z,7.95
2022-08-17T22:17:24.774Z,8.13
2022-08-17T22:19:54.790Z,8.10
2022-08-17T22:22:27.219Z,8.52
2022-08-17T22:24:57.543Z,8.00
2022-08-17T22:27:47.790Z,8.32
2022-08-17T22:30:19.828Z,8.82
2022-08-17T22:32:49.258Z,8.10
2022-08-17T22:35:34.608Z,8.65
2022-08-17T22:38:27.261Z,8.57
2022-08-17T22:40:56.450Z,9.65
2022-08-17T22:43:28.416Z,8.55
2022-08-17T22:45:58.586Z,8.90
2022-08-17T22:48:29.381Z,8.80
2022-08-17T22:51:12.282Z,8.43
2022-08-17T22:54:04.923Z,8.43
2022-08-17T22:56:50.206Z,8.52
2022-08-17T22:59:37.008Z,9.15
2022-08-17T23:02:17.822Z,8.98
2022-08-17T23:04:51.145Z,8.82
2022-08-17T23:07:19.088Z,8.95
2022-08-17T23:09:46.535Z,8.70
2022-08-17T23:12:17.725Z,8.35
2022-08-17T23:14:47.952Z,8.98
2022-08-17T23:17:16.294Z,9.23
2022-08-17T23:19:44.975Z,9.20
2022-08-17T23:22:13.674Z,8.70
2022-08-17T23:24:45.424Z,9.52
2022-08-17T23:27:13.313Z,9.98
2022-08-17T23:29:42.062Z,9.05
2022-08-17T23:32:12.146Z,9.10
2022-08-17T23:34:40.689Z,9.07
2022-08-17T23:37:08.417Z,9.43
2022-08-17T23:39:37.657Z,9.07
2022-08-17T23:42:08.475Z,9.15
2022-08-17T23:44:36.935Z,9.50
2022-08-17T23:47:04.997Z,9.13
2022-08-17T23:49:32.907Z,9.30
2022-08-17T23:52:01.252Z,9.20
2022-08-17T23:54:33.658Z,9.65
2022-08-17T23:57:04.241Z,9.20
2022-08-17T23:59:32.871Z,9.88
